Addisleigh Park, NY

2:03 AM EST on December 26, 2014 (GMT -0500)
South Richmond Hill | Change Station
CLOSE
Current Station
Personal Weather Station
Location: South Richmond Hill, NY
Elevation: 49 ft
Nearby Weather Stations

Elev 49 ft 40.69 °N, 73.83 °W | Updated 0 second ago

Clear
Clear
42.1 °F
Feels Like 42 °F
N
2.7
Wind Variable Wind from WSW
Gusts 2.7 mph

Today
High -- | Low -- °F
--% Chance of Precip.
Yesterday
High -- | Low -- °F
Precip. -- in
7:17 AM 4:33 PM
Waxing Crescent, 23% visible
Pressure 30.16 in
Visibility 10.0 miles
Clouds Clear
Windchill 42 °F
Dew Point 30 °F
Humidity 63%
Rainfall 0.00 in
Snow Depth Not available.
UV 0 out of 12
Pollen .10 out of 12
Air Quality Not available.
Flu Activity Not available.
METAR KJFK 260651Z 26008KT 10SM CLR 06/M01 A3016 RMK AO2 SLP211 T00561006 $

More Conditions Fewer Conditions

Pressure 30.16 in
Visibility 10.0 miles
Clouds Clear
Windchill 42 °F
Dew Point 30 °F
Humidity 63%
Rainfall 0.00 in
Snow Depth Not available.
UV 0 out of 12
Pollen .10 out of 12
Air Quality Not available.
Flu Activity Not available.
METAR KJFK 260651Z 26008KT 10SM CLR 06/M01 A3016 RMK AO2 SLP211 T00561006 $

More Conditions Fewer Conditions

10-Day Weather Forecast

Almanac

Astronomy

Dec. 26, 2014 Rise Set
Actual Time
Civil Twilight
Nautical Twilight
Astronomical Twilight
Moon
Length of Visible Light
Length of Day
Tomorrow will be .
, % of the Moon is Illuminated

Today's Extremes

State Highs State Lows

Community

WunderPhotos

Upload Photos

1,780,569 photos uploaded!

WunderBlogs® & News

Nearby

Air Quality

  Air Quality AQ Index Pollutant
Not available.

Snow Depth

Station Depth Elevation

Earthquake Activity

City Distance Mag. Time & Date
Minimum magnitude displayed is 2.5.

Coastal Water Temperatures

Place Temperature

Nearby Weather Stations